Weather Links

Aviation Weather Information
GALVESTON, TX
Metar
KGLS 231659Z 19014KT 5SM BR BKN005 BKN018 OVC027 23/21 A2990 RMK AO2 T02330211

16:59 UTC

Wind: 190° 14kt

Visibility: 5 SM

Sky: BKN 500 ft

Temp: 23 deg C / 73.4 deg F

Dewpoint: 21 deg C / 69.8 deg F

Pressure: 29.9 inHg

TAF
KGLS 231556Z 2316/2412 18010KT 3/4SM -RA BR VCSH BKN002 BKN029 OVC045 FM231630 24011KT 5SM -RA BR SCT004 BKN013 OVC040 TEMPO 2317/2319 SHRA FM231900 28014G24KT P6SM SCT020 BKN050 BKN250 FM232100 29013G23KT P6SM SCT050 BKN250 FM240100 26007KT P6SM SCT250 FM241000 35012G20KT P6SM SCT250
Pireps (13)
IAH UA /OV 12 W IAH/TM 1636/FLDURC/TP B777/SK BASE 019 TOP 080
IAH UA /OV 12 W IAH/TM 1636/FLDURC/TP B777/SK BASE 019 TOP 080
IAH UA /OV 12 W IAH/TM 1636/FLDURC/TP B777/SK BASE 019 TOP 080
IAH UA /OV IAH270012/TM 1636/FLDURGC/TP B777/SK BASE 019 TOP 080
IAH UA /OV IAH270012/TM 1636/FLDURGC/TP B777/SK BASE 019 TOP 080
IAH UA /OV 3 MI FINAL/TM 1627/FL012/TP B737/SK SCT/TA 24/WV 230012
GVX UA /OV VUH360025/TM 1620/FL410/TP C680/TB MOD/RM FM ZHU AWC-WEB/
DWH UA /OV 4SM NORTH/TM 1611/FL010/TP DA40/SK OVC/WX 5/TA 74/WV 22011G17
IAH UA /OV IAH180060/TM 1605/FL220/TP UNKN/TB CONT OCNL 140-220/RM RPRTD DURC/ FM ZHU AWC-WEB/
IAH UA /OV 26L FINAL/TM 1604/FL010/TP E145/SK OVC
IAH UA /OV KHOU180040/TM 1600/FL160/TP B763/TB MOD 160-240/RM FM ZHU AWC-WEB/
IAH UA /OV 40SW OF IAH/TM 1526/FL150/TP A319/TB MOD TURB FL180-160
DWH UA /OV 1 WEST/TM 1511/FL012/TP DA40/SK OVC011